Time;durP1;ratioP1;P1;durP2;ratioP2;P2;SDS_P1;SDS_P2;PMS_P1;PMS_P2;Temp;Humidity;BMP_temperature;BMP_pressure;BME280_temperature;BME280_humidity;BME280_pressure;Samples;Min_cycle;Max_cycle;Signal;HPM_P1;HPM_P2
2021/01/16 00:00:20;;;;;;;1.87;1.77;;;19.70;41.70;;;;;;4993376;28;20488;-71
2021/01/16 00:02:46;;;;;;;1.50;1.50;;;19.70;41.50;;;;;;4997356;28;20539;-71
2021/01/16 00:05:15;;;;;;;1.43;1.33;;;19.70;41.50;;;;;;4994102;28;21032;-71
2021/01/16 00:07:42;;;;;;;2.67;1.57;;;19.70;41.60;;;;;;4982448;28;20517;-71
2021/01/16 00:10:11;;;;;;;1.40;1.33;;;19.70;41.60;;;;;;4981012;28;20491;-72
2021/01/16 00:12:37;;;;;;;1.90;1.50;;;19.80;41.60;;;;;;4956059;28;21065;-71
2021/01/16 00:15:04;;;;;;;1.27;1.27;;;19.80;42.10;;;;;;4970233;28;20582;-72
2021/01/16 00:17:30;;;;;;;1.40;1.40;;;19.80;41.60;;;;;;4974103;28;21074;-71
2021/01/16 00:19:56;;;;;;;1.63;1.63;;;19.80;41.90;;;;;;4970382;28;20492;-71
2021/01/16 00:22:22;;;;;;;1.73;1.63;;;19.80;41.70;;;;;;4973062;28;20481;-71
2021/01/16 00:24:48;;;;;;;1.77;1.67;;;19.80;41.70;;;;;;4971473;28;20497;-72
2021/01/16 00:27:15;;;;;;;1.70;1.60;;;19.80;41.70;;;;;;4976580;28;20524;-72
2021/01/16 00:29:41;;;;;;;1.53;1.47;;;19.80;41.70;;;;;;4970717;28;20537;-71
2021/01/16 00:32:07;;;;;;;1.50;1.40;;;19.80;41.80;;;;;;4969276;28;20493;-71
2021/01/16 00:34:34;;;;;;;1.80;1.70;;;19.80;42.40;;;;;;4972526;28;20482;-72
2021/01/16 00:37:00;;;;;;;1.60;1.50;;;19.80;41.50;;;;;;4970679;28;20489;-71
2021/01/16 00:39:26;;;;;;;2.20;1.47;;;19.80;41.60;;;;;;4961462;28;20493;-71
2021/01/16 00:41:52;;;;;;;1.57;1.47;;;19.70;41.40;;;;;;4982458;28;20494;-71
2021/01/16 00:44:19;;;;;;;1.60;1.60;;;19.70;41.40;;;;;;4991217;28;20466;-71
2021/01/16 00:46:45;;;;;;;1.73;1.63;;;19.70;41.60;;;;;;5001779;28;20477;-72
2021/01/16 00:49:11;;;;;;;1.27;1.27;;;19.70;41.50;;;;;;4983785;28;21268;-72
2021/01/16 00:51:37;;;;;;;1.70;1.60;;;19.70;42.50;;;;;;4974587;28;20994;-72
2021/01/16 00:54:04;;;;;;;1.67;1.57;;;19.70;41.60;;;;;;4969623;28;20832;-71
2021/01/16 00:56:30;;;;;;;1.30;1.30;;;19.60;41.80;;;;;;4973553;28;20482;-72
2021/01/16 00:58:57;;;;;;;2.30;2.20;;;19.60;41.80;;;;;;4974994;28;21660;-71
2021/01/16 01:01:24;;;;;;;2.00;1.90;;;19.70;41.90;;;;;;4976108;28;20507;-71
2021/01/16 01:03:50;;;;;;;1.53;1.53;;;19.60;42.30;;;;;;4978080;28;20544;-71
2021/01/16 01:06:16;;;;;;;1.50;1.40;;;19.60;41.70;;;;;;4972203;28;20976;-71
2021/01/16 01:08:42;;;;;;;1.70;1.60;;;19.60;41.80;;;;;;4973094;28;20481;-71
2021/01/16 01:11:08;;;;;;;1.27;1.27;;;19.60;41.90;;;;;;4982328;28;21059;-70
2021/01/16 01:13:34;;;;;;;1.60;1.50;;;19.60;41.90;;;;;;4968259;28;20557;-71
2021/01/16 01:16:01;;;;;;;1.33;1.33;;;19.60;41.90;;;;;;4973759;28;20477;-71
2021/01/16 01:18:28;;;;;;;1.57;1.50;;;19.60;41.80;;;;;;4974944;28;20484;-71
2021/01/16 01:20:54;;;;;;;2.70;1.53;;;19.60;41.90;;;;;;4973785;28;21012;-71
2021/01/16 01:23:20;;;;;;;1.87;1.77;;;19.60;41.90;;;;;;4957349;28;20994;-70
2021/01/16 01:25:46;;;;;;;1.70;1.60;;;19.60;41.70;;;;;;4961724;28;20478;-72
2021/01/16 01:28:12;;;;;;;2.17;2.07;;;19.60;41.70;;;;;;4974020;28;20481;-70
2021/01/16 01:30:38;;;;;;;1.67;1.67;;;19.60;41.80;;;;;;4969646;28;20494;-70
2021/01/16 01:33:13;;;;;;;1.60;1.60;;;19.60;41.90;;;;;;4975085;28;20484;-70
2021/01/16 01:35:40;;;;;;;2.20;2.10;;;19.60;42.10;;;;;;4973112;28;20492;-70
2021/01/16 01:38:06;;;;;;;1.80;1.70;;;19.50;41.70;;;;;;4992046;28;20520;-69
2021/01/16 01:40:33;;;;;;;2.00;1.90;;;19.50;41.90;;;;;;4993579;28;20497;-70
2021/01/16 01:42:59;;;;;;;1.80;1.80;;;19.50;41.60;;;;;;4986414;28;20567;-69
2021/01/16 01:45:26;;;;;;;1.77;1.67;;;19.50;41.70;;;;;;4990745;28;20574;-69
2021/01/16 01:47:53;;;;;;;1.27;1.20;;;19.50;41.90;;;;;;4992760;28;20576;-69
2021/01/16 01:50:19;;;;;;;1.70;1.60;;;19.60;41.60;;;;;;4990896;28;20484;-69
2021/01/16 01:52:46;;;;;;;1.50;1.40;;;19.50;41.90;;;;;;4987866;28;20490;-71
2021/01/16 01:55:12;;;;;;;1.87;1.77;;;19.50;41.90;;;;;;4980798;28;20493;-70
2021/01/16 01:57:39;;;;;;;1.80;1.80;;;19.60;41.80;;;;;;4993498;28;20507;-71
2021/01/16 02:00:06;;;;;;;1.70;1.70;;;19.50;41.90;;;;;;4978715;28;20481;-70
2021/01/16 02:02:33;;;;;;;1.47;1.37;;;19.50;41.70;;;;;;4991271;28;20498;-69
2021/01/16 02:05:00;;;;;;;1.67;1.27;;;19.60;42.00;;;;;;4987871;28;20518;-70
2021/01/16 02:07:27;;;;;;;1.57;1.57;;;19.50;41.80;;;;;;4991797;28;20542;-69
2021/01/16 02:09:54;;;;;;;1.43;1.33;;;19.60;41.90;;;;;;4991472;28;20495;-69
2021/01/16 02:12:21;;;;;;;1.10;1.10;;;19.60;41.70;;;;;;4990627;28;20496;-69
2021/01/16 02:15:03;;;;;;;1.60;1.60;;;19.60;41.90;;;;;;4992366;28;21106;-70
2021/01/16 02:17:29;;;;;;;1.77;1.67;;;19.60;41.80;;;;;;4992610;28;20512;-69
2021/01/16 02:20:10;;;;;;;1.13;1.13;;;19.60;41.90;;;;;;4992231;28;20485;-69
2021/01/16 02:22:52;;;;;;;1.70;1.70;;;19.50;41.60;;;;;;4980887;28;20469;-70
2021/01/16 02:25:22;;;;;;;1.90;1.80;;;19.50;41.70;;;;;;4988842;28;20525;-70
2021/01/16 02:27:57;;;;;;;1.30;1.30;;;19.50;41.90;;;;;;4993269;28;20477;-70
2021/01/16 02:30:24;;;;;;;1.40;1.40;;;19.50;41.80;;;;;;4986199;28;21265;-70
2021/01/16 02:32:50;;;;;;;1.60;1.50;;;19.50;42.40;;;;;;4984812;28;20587;-70
2021/01/16 02:35:16;;;;;;;2.10;2.00;;;19.50;41.60;;;;;;4999661;28;20481;-70
2021/01/16 02:37:53;;;;;;;1.60;1.50;;;19.50;41.90;;;;;;4977541;28;20479;-70
2021/01/16 02:40:22;;;;;;;1.73;1.63;;;19.50;41.70;;;;;;4993778;28;20476;-69
2021/01/16 02:42:59;;;;;;;1.90;1.80;;;19.50;41.80;;;;;;4990332;28;20996;-70
2021/01/16 02:45:26;;;;;;;1.20;1.20;;;19.50;42.00;;;;;;4989778;28;20520;-70
2021/01/16 02:48:08;;;;;;;2.13;2.03;;;19.50;41.60;;;;;;4981156;28;20496;-70
2021/01/16 02:50:35;;;;;;;1.73;1.63;;;19.50;41.80;;;;;;4995974;28;20480;-70
2021/01/16 02:53:01;;;;;;;1.57;1.53;;;19.50;41.60;;;;;;4985175;28;20479;-70
2021/01/16 02:55:28;;;;;;;3.20;1.87;;;19.50;41.80;;;;;;4990029;28;20481;-70
2021/01/16 02:57:54;;;;;;;1.47;1.37;;;19.50;42.00;;;;;;4991881;28;20538;-71
2021/01/16 03:00:22;;;;;;;1.50;1.47;;;19.50;42.20;;;;;;4983947;28;20487;-69
2021/01/16 03:02:48;;;;;;;1.50;1.50;;;19.60;42.30;;;;;;4991800;28;20511;-70
2021/01/16 03:05:17;;;;;;;1.30;1.30;;;19.60;42.60;;;;;;4987705;28;20492;-71
2021/01/16 03:07:44;;;;;;;1.40;1.40;;;19.60;42.60;;;;;;4992447;28;20573;-70
2021/01/16 03:10:11;;;;;;;1.20;1.20;;;19.70;42.80;;;;;;4992087;28;20488;-71
2021/01/16 03:12:38;;;;;;;1.30;1.30;;;19.60;42.30;;;;;;4989416;28;20860;-71
2021/01/16 03:15:06;;;;;;;1.33;1.30;;;19.60;41.70;;;;;;4989286;28;20486;-71
2021/01/16 03:17:44;;;;;;;1.13;1.13;;;19.60;41.90;;;;;;4993439;28;21107;-70
2021/01/16 03:20:12;;;;;;;1.90;1.80;;;19.50;41.80;;;;;;4966531;28;20486;-71
2021/01/16 03:22:38;;;;;;;1.57;1.57;;;19.50;41.60;;;;;;4977740;28;20469;-71
2021/01/16 03:25:06;;;;;;;1.80;1.70;;;19.60;41.70;;;;;;4982398;28;20481;-71
2021/01/16 03:27:32;;;;;;;1.60;1.50;;;19.50;41.40;;;;;;4992850;28;20476;-71
2021/01/16 03:29:58;;;;;;;1.70;1.60;;;19.60;41.60;;;;;;4987044;28;20491;-71
2021/01/16 03:32:24;;;;;;;1.30;1.30;;;19.50;41.50;;;;;;4991027;28;21013;-71
2021/01/16 03:34:52;;;;;;;1.47;1.47;;;19.50;41.60;;;;;;4987985;28;20484;-71
2021/01/16 03:37:19;;;;;;;1.47;1.47;;;19.50;41.80;;;;;;4989351;28;20973;-71
2021/01/16 03:39:45;;;;;;;1.60;1.50;;;19.50;41.50;;;;;;4992801;28;20481;-71
2021/01/16 03:42:11;;;;;;;1.90;1.80;;;19.50;41.60;;;;;;4991040;28;20492;-71
2021/01/16 03:44:37;;;;;;;1.87;1.77;;;19.50;41.80;;;;;;4978009;28;20546;-71
2021/01/16 03:47:04;;;;;;;1.50;1.40;;;19.50;41.70;;;;;;4994058;28;20851;-70
2021/01/16 03:49:30;;;;;;;1.57;1.57;;;19.50;41.80;;;;;;4995618;28;20480;-71
2021/01/16 03:51:57;;;;;;;1.63;1.53;;;19.60;42.00;;;;;;4976026;28;20500;-71
2021/01/16 03:54:23;;;;;;;1.80;1.70;;;19.60;42.00;;;;;;4983261;28;20546;-71
2021/01/16 03:56:49;;;;;;;1.57;1.50;;;19.60;42.40;;;;;;4992842;28;20492;-71
2021/01/16 03:59:15;;;;;;;1.10;1.10;;;19.50;41.50;;;;;;4993238;28;20483;-71
2021/01/16 04:01:41;;;;;;;1.67;1.53;;;19.50;41.50;;;;;;4991185;28;20476;-71
2021/01/16 04:04:07;;;;;;;1.70;1.60;;;19.50;41.40;;;;;;4972884;28;20504;-70
2021/01/16 04:06:34;;;;;;;1.30;1.30;;;19.50;41.60;;;;;;4974193;28;20486;-71
2021/01/16 04:09:01;;;;;;;1.57;1.47;;;19.50;41.40;;;;;;4960772;28;20497;-71
2021/01/16 04:11:27;;;;;;;1.53;1.40;;;19.50;41.60;;;;;;4973314;28;20514;-71
2021/01/16 04:13:53;;;;;;;1.60;1.60;;;19.50;41.90;;;;;;4969804;28;21028;-70
2021/01/16 04:16:19;;;;;;;1.73;1.73;;;19.40;42.00;;;;;;4975203;28;20761;-70
2021/01/16 04:18:45;;;;;;;1.50;1.40;;;19.40;41.40;;;;;;4985924;28;20477;-70
2021/01/16 04:21:11;;;;;;;1.80;1.70;;;19.40;41.80;;;;;;4997073;28;21289;-71
2021/01/16 04:23:37;;;;;;;1.53;1.53;;;19.40;41.80;;;;;;4972582;28;20536;-71
2021/01/16 04:26:04;;;;;;;1.50;1.50;;;19.30;41.40;;;;;;4973715;28;20490;-70
2021/01/16 04:28:31;;;;;;;2.27;1.63;;;19.40;41.70;;;;;;4974703;28;20549;-71
2021/01/16 04:30:57;;;;;;;1.60;1.50;;;19.30;41.80;;;;;;4961267;28;20989;-70
2021/01/16 04:33:23;;;;;;;1.80;1.70;;;19.30;41.50;;;;;;4970758;28;21075;-70
2021/01/16 04:35:49;;;;;;;1.80;1.70;;;19.40;41.90;;;;;;4971952;28;20496;-70
2021/01/16 04:38:15;;;;;;;2.00;1.90;;;19.40;41.80;;;;;;4975882;28;20539;-71
2021/01/16 04:40:41;;;;;;;1.37;1.37;;;19.30;41.80;;;;;;4974298;28;20496;-70
2021/01/16 04:43:08;;;;;;;2.03;1.93;;;19.30;41.90;;;;;;4969007;28;20481;-71
2021/01/16 04:45:35;;;;;;;1.97;1.90;;;19.30;41.80;;;;;;4975293;28;20488;-71
2021/01/16 04:48:02;;;;;;;1.90;1.80;;;19.30;41.80;;;;;;4976114;28;20532;-71
2021/01/16 04:50:29;;;;;;;1.70;1.60;;;19.30;41.90;;;;;;4978032;28;21483;-71
2021/01/16 04:53:00;;;;;;;1.43;1.33;;;19.30;42.00;;;;;;4962003;28;21066;-70
2021/01/16 04:55:26;;;;;;;2.30;1.70;;;19.30;41.90;;;;;;4959959;28;21144;-71
2021/01/16 04:57:52;;;;;;;1.27;1.20;;;19.30;41.80;;;;;;4975690;28;20920;-70
2021/01/16 05:00:21;;;;;;;1.63;1.40;;;19.30;41.90;;;;;;4972988;28;20844;-71
2021/01/16 05:02:47;;;;;;;1.10;1.10;;;19.30;42.00;;;;;;4971643;28;20485;-70
2021/01/16 05:05:13;;;;;;;1.43;1.43;;;19.30;41.70;;;;;;4971999;28;20536;-71
2021/01/16 05:07:39;;;;;;;1.73;1.63;;;19.30;41.80;;;;;;4974944;28;21437;-72
2021/01/16 05:10:07;;;;;;;1.43;1.43;;;19.30;41.80;;;;;;4973608;28;20490;-70
2021/01/16 05:12:43;;;;;;;1.40;1.40;;;19.30;41.50;;;;;;4973816;28;20489;-70
2021/01/16 05:15:13;;;;;;;1.57;1.57;;;19.30;41.80;;;;;;4969972;28;20566;-70
2021/01/16 05:17:42;;;;;;;1.20;1.20;;;19.30;41.80;;;;;;4975079;28;20485;-70
2021/01/16 05:20:08;;;;;;;1.57;1.47;;;19.30;41.90;;;;;;4989937;28;20480;-70
2021/01/16 05:22:34;;;;;;;1.50;1.40;;;19.30;42.10;;;;;;4981831;28;20484;-70
2021/01/16 05:25:03;;;;;;;2.10;2.00;;;19.30;42.20;;;;;;4978514;28;20493;-71
2021/01/16 05:27:33;;;;;;;1.60;1.50;;;19.30;42.50;;;;;;4988821;28;20488;-70
2021/01/16 05:30:01;;;;;;;2.10;2.00;;;19.30;42.10;;;;;;4980821;28;21049;-70
2021/01/16 05:32:28;;;;;;;1.80;1.70;;;19.30;41.90;;;;;;4991269;28;20495;-71
2021/01/16 05:34:55;;;;;;;1.50;1.40;;;19.30;41.90;;;;;;4988568;28;20481;-71
2021/01/16 05:37:22;;;;;;;1.70;1.60;;;19.30;41.70;;;;;;4990775;28;21458;-70
2021/01/16 05:39:48;;;;;;;1.67;1.63;;;19.30;41.40;;;;;;4990963;28;20488;-70
2021/01/16 05:42:14;;;;;;;1.10;1.10;;;19.30;41.30;;;;;;4990937;28;20481;-70
2021/01/16 05:44:41;;;;;;;1.10;1.10;;;19.30;41.60;;;;;;4990832;28;20558;-70
2021/01/16 05:47:07;;;;;;;1.23;1.13;;;19.30;41.60;;;;;;4982473;28;20493;-70
2021/01/16 05:49:33;;;;;;;1.80;1.70;;;19.30;41.80;;;;;;4991231;28;20492;-70
2021/01/16 05:52:00;;;;;;;1.60;1.60;;;19.30;42.00;;;;;;4989461;28;20490;-70
2021/01/16 05:54:28;;;;;;;1.23;1.23;;;19.30;41.40;;;;;;4988437;28;20543;-71
2021/01/16 05:56:54;;;;;;;1.57;1.57;;;19.30;41.80;;;;;;4992913;28;20489;-70
2021/01/16 05:59:20;;;;;;;1.40;1.40;;;19.30;41.40;;;;;;4992313;28;20491;-70
2021/01/16 06:01:47;;;;;;;1.50;1.47;;;19.30;42.00;;;;;;4990630;28;20488;-70
2021/01/16 06:04:16;;;;;;;2.00;1.73;;;19.30;41.50;;;;;;4982917;28;20584;-70
2021/01/16 06:06:43;;;;;;;1.53;1.50;;;19.30;41.60;;;;;;4987852;28;20858;-70
2021/01/16 06:09:14;;;;;;;1.50;1.40;;;19.20;41.90;;;;;;4990430;28;20524;-70
2021/01/16 06:11:43;;;;;;;1.90;1.77;;;19.20;42.00;;;;;;4984720;28;20615;-70
2021/01/16 06:14:10;;;;;;;1.80;1.70;;;19.30;42.00;;;;;;4992403;28;20481;-71
2021/01/16 06:16:46;;;;;;;1.37;1.37;;;19.20;41.80;;;;;;4992716;28;20492;-71
2021/01/16 06:19:12;;;;;;;1.80;1.70;;;19.30;41.90;;;;;;4982339;28;20846;-70
2021/01/16 06:21:39;;;;;;;1.30;1.30;;;19.30;41.90;;;;;;4986208;28;20488;-71
2021/01/16 06:24:05;;;;;;;1.90;1.77;;;19.30;41.60;;;;;;4988665;28;20492;-71
2021/01/16 06:26:32;;;;;;;1.40;1.37;;;19.30;41.80;;;;;;4992465;28;21450;-70
2021/01/16 06:28:59;;;;;;;1.80;1.70;;;19.20;41.60;;;;;;4990747;28;20488;-70
2021/01/16 06:31:26;;;;;;;1.50;1.50;;;19.30;41.50;;;;;;4979325;28;20563;-70
2021/01/16 06:33:56;;;;;;;1.10;1.10;;;19.30;42.00;;;;;;5005194;28;20980;-71
2021/01/16 06:36:25;;;;;;;1.20;1.20;;;19.20;41.80;;;;;;4989931;28;20564;-71
2021/01/16 06:38:55;;;;;;;1.23;1.10;;;19.20;41.90;;;;;;4989378;28;20572;-70
2021/01/16 06:41:21;;;;;;;1.30;1.30;;;19.30;42.20;;;;;;4990610;28;20922;-70
2021/01/16 06:43:48;;;;;;;1.17;1.17;;;19.30;42.00;;;;;;4989557;28;21042;-71
2021/01/16 06:46:15;;;;;;;1.00;1.00;;;19.30;42.00;;;;;;4980375;28;20499;-71
2021/01/16 06:48:43;;;;;;;1.40;1.40;;;19.20;41.90;;;;;;4989390;28;20477;-71
2021/01/16 06:51:10;;;;;;;1.47;1.37;;;19.20;41.80;;;;;;4988760;28;20580;-71
2021/01/16 06:53:37;;;;;;;1.43;1.33;;;19.30;41.40;;;;;;4991435;28;20511;-71
2021/01/16 06:56:05;;;;;;;3.33;1.80;;;19.30;41.30;;;;;;4988495;28;20485;-71
2021/01/16 06:58:38;;;;;;;1.80;1.40;;;19.30;41.50;;;;;;4995425;28;20487;-70
2021/01/16 07:01:06;;;;;;;1.23;1.23;;;19.30;41.50;;;;;;4989786;28;20567;-70
2021/01/16 07:03:32;;;;;;;1.47;1.40;;;19.30;41.40;;;;;;4990578;28;20527;-71
2021/01/16 07:05:58;;;;;;;1.40;1.37;;;19.30;41.40;;;;;;4986851;28;20489;-71
2021/01/16 07:08:25;;;;;;;1.17;1.17;;;19.40;41.20;;;;;;4991084;28;20510;-70
2021/01/16 07:10:51;;;;;;;1.10;1.10;;;19.40;41.00;;;;;;4989751;28;20481;-71
2021/01/16 07:13:17;;;;;;;1.73;1.63;;;19.50;40.90;;;;;;4982058;28;20961;-70
2021/01/16 07:15:44;;;;;;;1.50;1.40;;;19.50;40.80;;;;;;4991045;28;20527;-71
2021/01/16 07:18:11;;;;;;;1.33;1.33;;;19.50;40.70;;;;;;4978844;28;20539;-70
2021/01/16 07:20:39;;;;;;;1.40;1.30;;;19.50;40.70;;;;;;4993595;28;20486;-71
2021/01/16 07:23:05;;;;;;;1.43;1.43;;;19.60;40.80;;;;;;4989273;28;20464;-70
2021/01/16 07:25:31;;;;;;;1.50;1.43;;;19.60;40.80;;;;;;4980995;28;20485;-71
2021/01/16 07:27:58;;;;;;;1.47;1.47;;;19.70;40.70;;;;;;4992701;28;20483;-71
2021/01/16 07:30:25;;;;;;;1.60;1.50;;;19.70;40.60;;;;;;4992138;28;20582;-71
2021/01/16 07:32:51;;;;;;;1.37;1.37;;;19.80;40.70;;;;;;4995639;28;20486;-70
2021/01/16 07:35:19;;;;;;;1.40;1.30;;;19.80;40.60;;;;;;4992820;28;21312;-70
2021/01/16 07:37:47;;;;;;;1.77;1.67;;;19.80;40.50;;;;;;4993285;28;20492;-72
2021/01/16 07:40:14;;;;;;;1.60;1.50;;;19.80;40.30;;;;;;4983583;28;20489;-71
2021/01/16 07:42:48;;;;;;;2.60;1.70;;;19.90;40.30;;;;;;4990539;28;20503;-69
2021/01/16 07:45:17;;;;;;;1.70;1.67;;;19.80;40.10;;;;;;4984044;28;20541;-70
2021/01/16 07:47:43;;;;;;;1.60;1.50;;;19.80;41.00;;;;;;4982647;28;20476;-70
2021/01/16 07:50:15;;;;;;;1.37;1.37;;;19.80;40.30;;;;;;4993299;28;20481;-70
2021/01/16 07:52:43;;;;;;;1.40;1.40;;;19.80;40.40;;;;;;4996367;28;20477;-71
2021/01/16 07:55:10;;;;;;;1.10;1.10;;;19.90;40.30;;;;;;5017161;28;20476;-71
2021/01/16 07:57:36;;;;;;;2.00;1.90;;;20.00;40.50;;;;;;5025523;28;21647;-71
2021/01/16 08:00:05;;;;;;;1.37;1.27;;;20.00;40.20;;;;;;5006271;28;20476;-70
2021/01/16 08:02:33;;;;;;;1.13;1.13;;;20.00;40.30;;;;;;4994227;28;20495;-70
2021/01/16 08:05:15;;;;;;;1.20;1.20;;;20.00;40.10;;;;;;4995024;28;20492;-70
2021/01/16 08:08:18;;;;;;;1.17;1.17;;;20.00;40.10;;;;;;4985929;28;20480;-69
2021/01/16 08:10:44;;;;;;;1.20;1.10;;;20.00;40.10;;;;;;4958079;28;20491;-70
2021/01/16 08:13:11;;;;;;;1.40;1.30;;;20.00;40.10;;;;;;4990630;28;20476;-70
2021/01/16 08:15:39;;;;;;;1.40;1.40;;;19.90;39.90;;;;;;4991809;28;20477;-70
2021/01/16 08:18:06;;;;;;;1.33;1.33;;;19.90;40.00;;;;;;4988627;28;20564;-70
2021/01/16 08:20:35;;;;;;;1.60;1.50;;;19.90;40.00;;;;;;4990997;28;20488;-71
2021/01/16 08:23:03;;;;;;;1.60;1.60;;;19.80;39.90;;;;;;5008528;28;20508;-70
2021/01/16 08:25:30;;;;;;;1.73;1.73;;;19.80;39.90;;;;;;4998421;28;20485;-70
2021/01/16 08:27:56;;;;;;;1.60;1.60;;;19.80;40.10;;;;;;4982975;28;20480;-70
2021/01/16 08:30:24;;;;;;;1.53;1.43;;;19.80;40.10;;;;;;4988876;28;20512;-69
2021/01/16 08:32:57;;;;;;;1.50;1.50;;;19.80;40.10;;;;;;4990668;28;20504;-70
2021/01/16 08:35:24;;;;;;;1.10;1.10;;;19.80;40.10;;;;;;4990644;28;20485;-69
2021/01/16 08:37:51;;;;;;;1.47;1.47;;;19.80;40.00;;;;;;4992786;28;20484;-70
2021/01/16 08:40:33;;;;;;;2.33;2.23;;;19.90;40.10;;;;;;4990922;28;20884;-70
2021/01/16 08:42:59;;;;;;;1.30;1.30;;;19.80;40.00;;;;;;4991799;28;21097;-69
2021/01/16 08:45:25;;;;;;;1.57;1.50;;;19.90;40.10;;;;;;4990318;28;21440;-70
2021/01/16 08:47:51;;;;;;;1.67;1.63;;;19.90;40.10;;;;;;4990151;28;20481;-70
2021/01/16 08:50:18;;;;;;;1.53;1.43;;;19.90;40.00;;;;;;4992004;28;20485;-70
2021/01/16 08:52:44;;;;;;;1.50;1.50;;;19.90;40.10;;;;;;4989843;28;20542;-70
2021/01/16 08:55:10;;;;;;;3.93;1.67;;;19.90;39.90;;;;;;4990741;28;20489;-70
2021/01/16 08:57:38;;;;;;;1.57;1.57;;;19.90;40.10;;;;;;4991834;28;20491;-70
2021/01/16 09:00:14;;;;;;;1.33;1.33;;;19.90;40.00;;;;;;4990617;28;20493;-70
2021/01/16 09:02:40;;;;;;;1.33;1.33;;;19.90;39.90;;;;;;4987414;28;20506;-69
2021/01/16 09:05:21;;;;;;;1.30;1.20;;;19.90;40.10;;;;;;4990968;28;20477;-70
2021/01/16 09:07:47;;;;;;;1.87;1.77;;;19.80;39.80;;;;;;4990723;28;20910;-70
2021/01/16 09:10:21;;;;;;;1.80;1.70;;;19.90;40.00;;;;;;4993037;28;20488;-70
2021/01/16 09:12:48;;;;;;;1.73;1.73;;;19.80;40.00;;;;;;4983307;28;20480;-70
2021/01/16 09:15:18;;;;;;;1.67;1.67;;;19.80;40.00;;;;;;4975116;28;20912;-69
2021/01/16 09:18:02;;;;;;;1.43;1.20;;;19.80;40.00;;;;;;4974826;28;20483;-69
2021/01/16 09:20:29;;;;;;;1.13;1.13;;;19.80;40.00;;;;;;4981695;28;20481;-70
2021/01/16 09:22:55;;;;;;;1.90;1.80;;;19.80;40.00;;;;;;4990872;28;20489;-70
2021/01/16 09:25:22;;;;;;;1.70;1.60;;;19.80;40.10;;;;;;4990515;28;20492;-70
2021/01/16 09:27:49;;;;;;;1.10;1.10;;;19.80;40.00;;;;;;4992715;28;21178;-70
2021/01/16 09:30:22;;;;;;;2.10;2.00;;;19.80;39.90;;;;;;4980997;28;21063;-70
2021/01/16 09:32:48;;;;;;;1.40;1.40;;;19.80;39.90;;;;;;4988285;28;20539;-71
2021/01/16 09:35:14;;;;;;;1.20;1.20;;;19.80;39.90;;;;;;4994196;28;20499;-71
2021/01/16 09:37:40;;;;;;;1.70;1.53;;;19.80;39.90;;;;;;4990346;28;20488;-69
2021/01/16 09:40:09;;;;;;;1.90;1.73;;;19.80;39.90;;;;;;4981201;28;20505;-70
2021/01/16 09:42:42;;;;;;;1.43;1.43;;;19.80;40.00;;;;;;4989574;28;20705;-69
2021/01/16 09:45:11;;;;;;;2.10;2.00;;;19.80;39.90;;;;;;4989134;28;21285;-70
2021/01/16 09:47:44;;;;;;;1.77;1.77;;;19.80;39.90;;;;;;4980004;28;20485;-70
2021/01/16 09:50:12;;;;;;;2.00;1.90;;;19.90;40.00;;;;;;4986944;28;20499;-70
2021/01/16 09:52:47;;;;;;;2.03;1.93;;;19.90;40.00;;;;;;4978680;28;20477;-70
2021/01/16 09:55:20;;;;;;;1.90;1.80;;;19.90;40.00;;;;;;4987772;28;20480;-70
2021/01/16 09:57:46;;;;;;;1.80;1.70;;;19.90;40.00;;;;;;4983096;28;20480;-70
2021/01/16 10:00:14;;;;;;;1.80;1.77;;;19.80;39.80;;;;;;4989983;28;21490;-70
2021/01/16 10:02:41;;;;;;;1.90;1.80;;;19.80;39.60;;;;;;4982010;28;20475;-70
2021/01/16 10:05:09;;;;;;;1.40;1.40;;;19.80;39.60;;;;;;4990825;28;20920;-70
2021/01/16 10:07:38;;;;;;;1.50;1.50;;;19.80;39.50;;;;;;4989589;28;21060;-72
2021/01/16 10:10:12;;;;;;;1.23;1.23;;;19.80;39.60;;;;;;4981046;28;20574;-70
2021/01/16 10:12:43;;;;;;;1.90;1.80;;;19.80;39.40;;;;;;4985756;28;20491;-70
2021/01/16 10:15:10;;;;;;;1.90;1.90;;;19.80;39.30;;;;;;4989027;28;20500;-70
2021/01/16 10:17:41;;;;;;;1.80;1.70;;;19.80;39.40;;;;;;4983304;28;21934;-70
2021/01/16 10:20:08;;;;;;;1.77;1.77;;;19.80;39.40;;;;;;4990990;28;20507;-71
2021/01/16 10:22:34;;;;;;;1.50;1.50;;;19.80;39.70;;;;;;4990672;28;21016;-71
2021/01/16 10:25:01;;;;;;;1.70;1.70;;;19.80;39.70;;;;;;4988900;28;20989;-71
2021/01/16 10:27:44;;;;;;;1.57;1.57;;;19.80;39.80;;;;;;4988966;28;20512;-70
2021/01/16 10:30:15;;;;;;;1.83;1.73;;;19.90;39.60;;;;;;4986534;28;20488;-71
2021/01/16 10:32:42;;;;;;;1.37;1.30;;;19.90;39.80;;;;;;4986525;28;20488;-71
2021/01/16 10:35:09;;;;;;;1.23;1.23;;;19.90;39.90;;;;;;4989580;28;20504;-70
2021/01/16 10:37:40;;;;;;;1.43;1.43;;;19.90;39.80;;;;;;4990368;28;20492;-70
2021/01/16 10:40:07;;;;;;;1.47;1.47;;;19.80;39.70;;;;;;4991223;28;20484;-69
2021/01/16 10:42:40;;;;;;;1.40;1.30;;;19.80;39.50;;;;;;4978822;28;20488;-70
2021/01/16 10:45:07;;;;;;;1.50;1.40;;;19.80;39.70;;;;;;4988135;28;21194;-70
2021/01/16 10:47:34;;;;;;;1.73;1.70;;;19.80;39.30;;;;;;4990846;28;20481;-70
2021/01/16 10:50:08;;;;;;;1.43;1.43;;;19.80;39.30;;;;;;4989722;28;20488;-69
2021/01/16 10:52:35;;;;;;;1.20;1.20;;;19.80;39.30;;;;;;4968871;28;20874;-69
2021/01/16 10:55:02;;;;;;;1.87;1.77;;;19.80;39.30;;;;;;4991192;28;20477;-69
2021/01/16 10:57:38;;;;;;;1.20;1.20;;;19.80;39.20;;;;;;4989926;28;20486;-69
2021/01/16 11:00:11;;;;;;;1.50;1.43;;;19.80;39.20;;;;;;4978228;28;20477;-69
2021/01/16 11:02:37;;;;;;;1.50;1.40;;;19.80;39.20;;;;;;4988132;28;20499;-70
2021/01/16 11:05:26;;;;;;;1.47;1.47;;;19.80;39.40;;;;;;4989988;28;20488;-69
2021/01/16 11:07:59;;;;;;;11.50;2.23;;;19.80;40.20;;;;;;4972479;28;20969;-70
2021/01/16 11:10:35;;;;;;;1.63;1.47;;;19.80;39.60;;;;;;4988035;28;21117;-70
2021/01/16 11:13:17;;;;;;;1.43;1.40;;;19.80;39.60;;;;;;4977631;28;20568;-69
2021/01/16 11:15:43;;;;;;;1.60;1.50;;;19.80;39.40;;;;;;4976300;28;21169;-70
2021/01/16 11:18:11;;;;;;;1.63;1.63;;;19.80;39.70;;;;;;4988462;28;20486;-71
2021/01/16 11:20:38;;;;;;;1.53;1.53;;;19.80;39.70;;;;;;4993418;28;20492;-70
2021/01/16 11:23:45;;;;;;;2.40;1.30;;;19.80;39.50;;;;;;4987290;28;20506;-70
2021/01/16 11:26:12;;;;;;;1.37;1.27;;;19.80;39.50;;;;;;4990678;28;20476;-70
2021/01/16 11:28:52;;;;;;;1.57;1.27;;;19.80;39.30;;;;;;5021586;28;20483;-70
2021/01/16 11:31:29;;;;;;;1.73;1.63;;;19.80;39.40;;;;;;5004167;28;20474;-69
2021/01/16 11:34:21;;;;;;;1.73;1.63;;;19.80;39.30;;;;;;4981020;28;20503;-71
2021/01/16 11:36:56;;;;;;;1.67;1.63;;;19.80;39.20;;;;;;4978612;28;20481;-69
2021/01/16 11:39:41;;;;;;;1.80;1.80;;;19.80;39.20;;;;;;4990519;28;20900;-70
2021/01/16 11:42:07;;;;;;;1.80;1.70;;;19.80;39.20;;;;;;4978739;28;20480;-70
2021/01/16 11:44:48;;;;;;;1.43;1.33;;;19.80;39.20;;;;;;4985206;28;20488;-69
2021/01/16 11:47:14;;;;;;;1.27;1.27;;;19.80;39.20;;;;;;4999311;28;20484;-69
2021/01/16 11:49:40;;;;;;;2.10;1.87;;;19.80;39.30;;;;;;4985098;28;20484;-70
2021/01/16 11:52:08;;;;;;;1.57;1.57;;;19.80;39.30;;;;;;4978307;28;20485;-70
2021/01/16 11:54:34;;;;;;;1.70;1.70;;;19.80;39.30;;;;;;4989763;28;20638;-69
2021/01/16 11:57:00;;;;;;;1.70;1.60;;;19.80;39.30;;;;;;4991759;28;20484;-71
2021/01/16 11:59:26;;;;;;;1.40;1.40;;;19.80;39.30;;;;;;4989537;28;20482;-71
2021/01/16 12:01:52;;;;;;;1.83;1.73;;;19.80;39.30;;;;;;4986883;28;20612;-70
2021/01/16 12:04:18;;;;;;;1.90;1.80;;;19.80;39.50;;;;;;4987659;28;20484;-70
2021/01/16 12:06:44;;;;;;;1.30;1.20;;;19.80;39.50;;;;;;4989908;28;20495;-70
2021/01/16 12:09:13;;;;;;;1.70;1.60;;;19.80;39.70;;;;;;4970474;28;20497;-70
2021/01/16 12:11:39;;;;;;;1.90;1.50;;;19.80;39.80;;;;;;4999565;28;20558;-68
2021/01/16 12:14:05;;;;;;;1.90;1.90;;;19.80;39.60;;;;;;4990922;28;20488;-69
2021/01/16 12:16:33;;;;;;;2.23;2.00;;;19.80;39.60;;;;;;4992396;28;20558;-68
2021/01/16 12:18:59;;;;;;;2.00;1.90;;;19.80;39.50;;;;;;4991171;28;20492;-68
2021/01/16 12:21:25;;;;;;;1.70;1.60;;;19.90;39.50;;;;;;4981528;28;21122;-68
2021/01/16 12:23:51;;;;;;;1.60;1.50;;;19.90;39.60;;;;;;5005205;28;20485;-68
2021/01/16 12:26:18;;;;;;;1.20;1.20;;;19.90;39.60;;;;;;4991791;28;20492;-68
2021/01/16 12:28:48;;;;;;;1.30;1.30;;;19.90;39.80;;;;;;4992366;28;21159;-68
2021/01/16 12:31:21;;;;;;;1.33;1.23;;;19.90;39.50;;;;;;4990298;28;21531;-71
2021/01/16 12:33:47;;;;;;;2.00;1.43;;;19.90;39.60;;;;;;4958432;28;20484;-71
2021/01/16 12:36:14;;;;;;;1.43;1.43;;;19.80;39.70;;;;;;4989921;28;20500;-70
2021/01/16 12:38:40;;;;;;;2.50;1.10;;;19.80;39.50;;;;;;4993004;28;20495;-71
2021/01/16 12:41:06;;;;;;;1.33;1.33;;;19.80;39.40;;;;;;4990901;28;20526;-71
2021/01/16 12:43:33;;;;;;;1.30;1.30;;;19.80;39.50;;;;;;4990784;28;20493;-71
2021/01/16 12:46:05;;;;;;;1.67;1.57;;;19.80;39.50;;;;;;4989910;28;20489;-70
2021/01/16 12:48:31;;;;;;;1.53;1.53;;;19.80;39.30;;;;;;4991293;28;20486;-71
2021/01/16 12:50:57;;;;;;;1.53;1.50;;;19.80;39.40;;;;;;4991170;28;20536;-71
2021/01/16 12:53:24;;;;;;;2.57;2.00;;;19.80;39.30;;;;;;4985105;28;20530;-71